Time;durP1;ratioP1;P1;durP2;ratioP2;P2;SDS_P1;SDS_P2;PMS_P1;PMS_P2;Temp;Humidity;BMP_temperature;BMP_pressure;BME280_temperature;BME280_humidity;BME280_pressure;Samples;Min_cycle;Max_cycle;Signal;HPM_P1;HPM_P2
2021/11/26 00:01:13;;;;;;;23.00;15.60;;;205.20;2252.80;;;;;;5076183;28;20746;-76
2021/11/26 00:03:45;;;;;;;24.85;16.00;;;205.20;2252.80;;;;;;5060800;28;20024;-76
2021/11/26 00:06:14;;;;;;;25.48;16.63;;;205.20;2252.80;;;;;;5063575;28;20016;-76
2021/11/26 00:08:42;;;;;;;23.38;15.60;;;205.20;2252.80;;;;;;5075240;28;20457;-76
2021/11/26 00:11:08;;;;;;;23.55;15.98;;;205.10;2252.80;;;;;;5075507;28;20028;-76
2021/11/26 00:13:39;;;;;;;23.15;16.20;;;205.20;2252.80;;;;;;5074700;28;20085;-76
2021/11/26 00:16:15;;;;;;;26.30;16.95;;;205.10;2252.80;;;;;;5093882;28;20016;-76
2021/11/26 00:18:46;;;;;;;23.50;18.07;;;205.10;2252.80;;;;;;5075597;28;20024;-77
2021/11/26 00:21:15;;;;;;;20.75;13.88;;;205.20;2252.80;;;;;;5075307;28;20269;-77
2021/11/26 00:23:44;;;;;;;23.15;15.45;;;205.20;2252.80;;;;;;5093961;28;20533;-77
2021/11/26 00:26:12;;;;;;;23.25;14.50;;;205.20;2252.80;;;;;;5093026;28;20028;-77
2021/11/26 00:28:38;;;;;;;27.70;15.82;;;205.20;2252.80;;;;;;5075069;28;20022;-76
2021/11/26 00:31:16;;;;;;;22.35;14.18;;;205.20;2252.80;;;;;;5074920;28;20032;-77
2021/11/26 00:33:44;;;;;;;27.42;15.55;;;205.20;2252.80;;;;;;5093185;28;20028;-77
2021/11/26 00:36:10;;;;;;;24.88;15.23;;;205.30;2252.80;;;;;;5074616;28;20124;-77
2021/11/26 00:38:36;;;;;;;21.40;15.13;;;205.30;2252.80;;;;;;5093199;28;20558;-76
2021/11/26 00:41:02;;;;;;;22.00;15.02;;;205.30;2252.80;;;;;;5092269;28;20115;-77
2021/11/26 00:43:29;;;;;;;26.25;15.70;;;205.20;2252.80;;;;;;5074919;28;20394;-77
2021/11/26 00:45:55;;;;;;;22.42;13.38;;;205.20;2252.80;;;;;;5092082;28;20016;-77
2021/11/26 00:48:28;;;;;;;21.40;13.00;;;205.30;2252.80;;;;;;5075004;28;20752;-77
2021/11/26 00:50:56;;;;;;;22.30;14.20;;;205.30;2252.80;;;;;;5092661;28;20060;-77
2021/11/26 00:53:25;;;;;;;21.70;13.25;;;205.30;2252.80;;;;;;5074547;28;20040;-77
2021/11/26 00:55:57;;;;;;;23.83;13.82;;;205.30;2252.80;;;;;;5091854;28;20020;-77
2021/11/26 00:58:37;;;;;;;20.63;14.88;;;205.30;2252.80;;;;;;5074513;28;20032;-77
2021/11/26 01:01:03;;;;;;;22.02;13.48;;;205.30;2252.80;;;;;;5074168;28;20032;-77
2021/11/26 01:03:30;;;;;;;20.95;13.75;;;205.30;2252.80;;;;;;5074317;28;20078;-77
2021/11/26 01:05:55;;;;;;;19.02;12.93;;;205.30;2252.80;;;;;;5076343;28;20055;-77
2021/11/26 01:08:24;;;;;;;19.60;13.35;;;205.30;2252.80;;;;;;5078421;28;20055;-77
2021/11/26 01:10:59;;;;;;;21.42;13.93;;;205.30;2252.80;;;;;;5113531;28;20469;-77
2021/11/26 01:13:28;;;;;;;20.95;13.55;;;205.30;2252.80;;;;;;5093790;28;20042;-77
2021/11/26 01:15:57;;;;;;;21.17;13.20;;;205.30;2252.80;;;;;;5090044;28;20479;-77
2021/11/26 01:18:26;;;;;;;20.20;13.32;;;205.30;2252.80;;;;;;5071662;28;20043;-77
2021/11/26 01:20:55;;;;;;;21.23;13.68;;;205.20;2252.80;;;;;;5090727;28;20403;-77
2021/11/26 01:23:30;;;;;;;23.10;14.27;;;205.30;2252.80;;;;;;5090501;28;20024;-77
2021/11/26 01:25:59;;;;;;;17.13;12.35;;;205.30;2252.80;;;;;;5091168;28;20052;-77
2021/11/26 01:28:27;;;;;;;21.35;12.93;;;205.30;2252.80;;;;;;5091667;28;20035;-79
2021/11/26 01:30:53;;;;;;;22.05;14.55;;;205.30;2252.80;;;;;;5091358;28;20020;-77
2021/11/26 01:33:21;;;;;;;19.67;13.60;;;205.30;2252.80;;;;;;5073613;28;20060;-77
2021/11/26 01:35:52;;;;;;;23.13;15.30;;;205.30;2252.80;;;;;;5098942;28;20019;-77
2021/11/26 01:38:19;;;;;;;22.42;13.82;;;205.30;2252.80;;;;;;5111538;28;20019;-77
2021/11/26 01:40:48;;;;;;;20.63;13.82;;;205.30;2252.80;;;;;;5094710;28;20115;-78
2021/11/26 01:43:31;;;;;;;19.33;12.57;;;205.30;2252.80;;;;;;5112492;28;20106;-77
2021/11/26 01:48:59;;;;;;;27.92;13.18;;;205.30;2252.80;;;;;;5112857;28;20107;-77
2021/11/26 01:51:28;;;;;;;21.20;13.15;;;205.30;2252.80;;;;;;5100206;28;20127;-76
2021/11/26 01:53:57;;;;;;;22.27;12.95;;;205.30;2252.80;;;;;;5073644;28;20437;-76
2021/11/26 01:56:31;;;;;;;18.55;12.85;;;205.30;2252.80;;;;;;5073742;28;20035;-76
2021/11/26 01:59:03;;;;;;;19.75;11.80;;;205.30;2252.80;;;;;;5073317;28;20463;-76
2021/11/26 02:01:33;;;;;;;22.02;13.00;;;205.30;2252.80;;;;;;5073902;28;20885;-76
2021/11/26 02:04:02;;;;;;;20.52;14.18;;;205.30;2252.80;;;;;;5091781;28;20027;-77
2021/11/26 02:06:33;;;;;;;18.60;13.60;;;205.30;2252.80;;;;;;5074108;28;20027;-77
2021/11/26 02:09:02;;;;;;;20.02;13.07;;;205.30;2252.80;;;;;;5069805;28;20039;-76
2021/11/26 02:11:28;;;;;;;16.63;11.82;;;205.30;2252.80;;;;;;5052857;28;20483;-77
2021/11/26 02:14:05;;;;;;;21.15;12.63;;;205.30;2252.80;;;;;;5053668;28;20086;-76
2021/11/26 02:17:04;;;;;;;17.70;12.13;;;205.30;2252.80;;;;;;5078355;28;20020;-77
2021/11/26 02:19:33;;;;;;;17.65;11.45;;;205.30;2252.80;;;;;;5090464;28;20028;-77
2021/11/26 02:22:05;;;;;;;21.20;12.15;;;205.30;2252.80;;;;;;5066381;28;20037;-77
2021/11/26 02:24:34;;;;;;;16.95;12.10;;;205.30;2252.80;;;;;;5052964;28;20037;-76
2021/11/26 02:27:00;;;;;;;23.10;12.80;;;205.30;2252.80;;;;;;5069635;28;20138;-76
2021/11/26 02:29:26;;;;;;;21.38;13.15;;;205.30;2252.80;;;;;;5036003;28;20119;-76
2021/11/26 02:32:07;;;;;;;21.13;12.23;;;205.30;2252.80;;;;;;5051389;28;20021;-77
2021/11/26 02:34:36;;;;;;;17.55;12.40;;;205.30;2252.80;;;;;;5051432;28;20401;-77
2021/11/26 02:37:17;;;;;;;18.80;11.95;;;205.30;2252.80;;;;;;5061836;28;20028;-77
2021/11/26 02:39:45;;;;;;;20.40;13.30;;;205.30;2252.80;;;;;;5050132;28;20028;-76
2021/11/26 02:42:36;;;;;;;19.23;12.90;;;205.30;2252.80;;;;;;5049656;28;20379;-77
2021/11/26 02:45:16;;;;;;;17.90;11.73;;;205.30;2252.80;;;;;;5032773;28;20045;-77
2021/11/26 02:47:45;;;;;;;19.13;11.70;;;205.30;2252.80;;;;;;5068132;28;20028;-77
2021/11/26 02:50:18;;;;;;;16.67;10.75;;;205.30;2252.80;;;;;;5072603;28;20111;-76
2021/11/26 02:52:47;;;;;;;17.20;12.50;;;205.30;2252.80;;;;;;5096453;28;20069;-76
2021/11/26 02:55:19;;;;;;;18.08;12.32;;;205.30;2252.80;;;;;;5115315;28;20474;-76
2021/11/26 02:57:49;;;;;;;18.73;11.23;;;205.30;2252.80;;;;;;5114822;28;20091;-76
2021/11/26 03:00:27;;;;;;;20.08;11.60;;;205.30;2252.80;;;;;;5114889;28;20031;-76
2021/11/26 03:02:59;;;;;;;20.52;12.13;;;205.30;2252.80;;;;;;5114180;28;20050;-76
2021/11/26 03:05:28;;;;;;;21.65;12.20;;;205.30;2252.80;;;;;;5112195;28;20399;-77
2021/11/26 03:08:00;;;;;;;16.30;11.70;;;205.20;2252.80;;;;;;5076304;28;20123;-76
2021/11/26 03:10:29;;;;;;;17.85;10.73;;;205.20;2252.80;;;;;;5093992;28;20079;-76
2021/11/26 03:15:49;;;;;;;15.95;10.23;;;205.00;2252.80;;;;;;5096072;28;20023;-76
2021/11/26 03:18:19;;;;;;;19.80;12.10;;;205.00;2252.80;;;;;;5094600;28;20103;-76
2021/11/26 03:21:00;;;;;;;20.73;12.57;;;205.00;2252.80;;;;;;5114939;28;20107;-76
2021/11/26 03:23:29;;;;;;;21.25;12.23;;;205.00;2252.80;;;;;;5096610;28;20023;-76
2021/11/26 03:26:01;;;;;;;16.65;10.75;;;205.00;2252.80;;;;;;5096238;28;20016;-76
2021/11/26 03:28:30;;;;;;;16.17;11.05;;;205.00;2252.80;;;;;;5113781;28;20161;-76
2021/11/26 03:30:56;;;;;;;19.00;12.43;;;205.00;2252.80;;;;;;5113350;28;20027;-77
2021/11/26 03:33:30;;;;;;;16.48;11.30;;;205.00;2252.80;;;;;;5094902;28;20634;-77
2021/11/26 03:35:59;;;;;;;17.38;12.00;;;205.00;2252.80;;;;;;5098908;28;20022;-77
2021/11/26 03:38:25;;;;;;;18.65;12.25;;;205.00;2252.80;;;;;;5112429;28;20481;-76
2021/11/26 03:41:02;;;;;;;16.75;10.68;;;205.00;2252.80;;;;;;5114001;28;20037;-76
2021/11/26 03:43:31;;;;;;;16.15;10.75;;;205.00;2252.80;;;;;;5095286;28;20039;-76
2021/11/26 03:46:03;;;;;;;16.02;10.93;;;205.00;2252.80;;;;;;5114021;28;20020;-76
2021/11/26 03:48:32;;;;;;;16.55;9.70;;;205.00;2252.80;;;;;;5096537;28;20036;-77
2021/11/26 03:51:05;;;;;;;17.33;11.60;;;205.00;2252.80;;;;;;5112004;28;20062;-76
2021/11/26 03:53:34;;;;;;;15.88;11.80;;;205.00;2252.80;;;;;;5114112;28;20513;-77
2021/11/26 03:56:15;;;;;;;15.15;11.05;;;205.00;2252.80;;;;;;5113357;28;20028;-76
2021/11/26 03:58:59;;;;;;;22.45;11.90;;;205.00;2252.80;;;;;;5113361;28;20026;-76
2021/11/26 04:01:34;;;;;;;16.02;10.10;;;205.10;2252.80;;;;;;5128750;27;20055;-76
2021/11/26 04:04:06;;;;;;;18.58;11.45;;;205.10;2252.80;;;;;;5114194;28;20015;-76
2021/11/26 04:06:35;;;;;;;18.00;10.68;;;205.10;2252.80;;;;;;5100952;28;20032;-77
2021/11/26 04:09:16;;;;;;;16.65;11.32;;;205.10;2252.80;;;;;;5113756;28;20027;-75
2021/11/26 04:11:45;;;;;;;16.08;9.02;;;205.10;2252.80;;;;;;5113797;28;20814;-75
2021/11/26 04:14:35;;;;;;;19.95;11.60;;;205.20;2252.80;;;;;;5114426;28;20025;-76
2021/11/26 04:17:16;;;;;;;19.23;11.30;;;205.20;2252.80;;;;;;5101991;28;20020;-75
2021/11/26 04:20:04;;;;;;;18.42;10.77;;;205.20;2252.80;;;;;;5075274;28;20036;-76
2021/11/26 04:22:37;;;;;;;21.75;11.30;;;205.20;2252.80;;;;;;5075265;28;20055;-76
2021/11/26 04:25:16;;;;;;;19.60;12.82;;;205.20;2252.80;;;;;;5093075;28;20039;-75
2021/11/26 04:30:48;;;;;;;16.15;11.35;;;205.10;2252.80;;;;;;5093489;28;20117;-76
2021/11/26 04:33:36;;;;;;;19.95;12.48;;;205.10;2252.80;;;;;;5075006;28;20028;-75
2021/11/26 04:36:08;;;;;;;18.73;11.27;;;205.00;2252.80;;;;;;5077830;28;20054;-76
2021/11/26 04:38:36;;;;;;;17.77;11.80;;;205.00;2252.80;;;;;;5112003;28;20020;-76
2021/11/26 04:41:21;;;;;;;18.00;12.93;;;205.00;2252.80;;;;;;5112232;28;20028;-76
2021/11/26 04:43:56;;;;;;;22.23;13.93;;;205.00;2252.80;;;;;;5095158;28;20032;-76
2021/11/26 04:46:37;;;;;;;17.90;13.55;;;204.90;2252.80;;;;;;5105451;28;20035;-77
2021/11/26 04:49:08;;;;;;;18.20;12.80;;;205.00;2252.80;;;;;;5092212;28;20036;-77
2021/11/26 04:51:44;;;;;;;18.35;12.27;;;204.90;2252.80;;;;;;5080019;28;20048;-77
2021/11/26 04:54:28;;;;;;;19.60;12.63;;;204.90;2252.80;;;;;;5071695;28;20055;-75
2021/11/26 04:57:00;;;;;;;22.60;13.50;;;204.90;2252.80;;;;;;5072476;28;20025;-75
2021/11/26 04:59:44;;;;;;;20.35;13.07;;;204.90;2252.80;;;;;;5054594;28;20052;-76
2021/11/26 05:02:10;;;;;;;22.95;14.88;;;204.90;2252.80;;;;;;5054608;28;20472;-76
2021/11/26 05:04:38;;;;;;;19.80;13.02;;;204.90;2252.80;;;;;;5055020;28;20029;-76
2021/11/26 05:07:04;;;;;;;19.98;13.68;;;204.90;2252.80;;;;;;5060114;28;20057;-76
2021/11/26 05:09:52;;;;;;;20.52;12.77;;;204.90;2252.80;;;;;;5051432;28;20052;-75
2021/11/26 05:12:21;;;;;;;18.92;12.10;;;204.90;2252.80;;;;;;5034462;28;20035;-75
2021/11/26 05:14:50;;;;;;;18.35;11.70;;;204.90;2252.80;;;;;;5050758;28;20021;-75
2021/11/26 05:17:18;;;;;;;16.92;11.57;;;204.90;2252.80;;;;;;5065359;28;20090;-76
2021/11/26 05:19:53;;;;;;;16.85;11.45;;;205.00;2252.80;;;;;;5072363;28;20024;-75
2021/11/26 05:22:41;;;;;;;14.73;10.63;;;204.90;2252.80;;;;;;5072062;28;20103;-77
2021/11/26 05:25:10;;;;;;;18.08;11.23;;;205.00;2252.80;;;;;;5072324;28;20050;-75
2021/11/26 05:27:36;;;;;;;21.33;12.40;;;205.00;2252.80;;;;;;5054633;28;20119;-75
2021/11/26 05:30:02;;;;;;;23.92;13.32;;;205.00;2252.80;;;;;;5070552;28;20123;-75
2021/11/26 05:32:35;;;;;;;20.83;12.45;;;205.00;2252.80;;;;;;5070251;28;20587;-75
2021/11/26 05:35:06;;;;;;;22.27;11.93;;;205.00;2252.80;;;;;;5053789;28;20377;-75
2021/11/26 05:37:44;;;;;;;19.13;11.73;;;205.00;2252.80;;;;;;5065236;28;20025;-75
2021/11/26 05:40:32;;;;;;;17.15;11.50;;;205.00;2252.80;;;;;;5053089;28;20025;-76
2021/11/26 05:43:04;;;;;;;20.45;11.60;;;205.00;2252.80;;;;;;5071085;28;20087;-75
2021/11/26 05:45:46;;;;;;;21.13;14.38;;;205.10;2252.80;;;;;;5054124;28;20931;-75
2021/11/26 05:48:15;;;;;;;17.45;12.82;;;205.00;2252.80;;;;;;5067541;28;20032;-75
2021/11/26 05:50:44;;;;;;;18.80;12.30;;;205.00;2252.80;;;;;;5081332;28;20069;-76
2021/11/26 05:53:15;;;;;;;17.75;11.60;;;205.00;2252.80;;;;;;5111309;28;20032;-75
2021/11/26 05:56:06;;;;;;;17.33;11.30;;;205.00;2252.80;;;;;;5111007;28;20038;-75
2021/11/26 05:58:41;;;;;;;20.65;12.13;;;205.00;2252.80;;;;;;5111005;28;20024;-75
2021/11/26 06:01:06;;;;;;;15.93;10.65;;;205.00;2252.80;;;;;;5111322;28;20030;-75
2021/11/26 06:03:35;;;;;;;18.55;11.60;;;205.10;2252.80;;;;;;5112336;28;20023;-75
2021/11/26 06:06:16;;;;;;;18.40;11.32;;;205.10;2252.80;;;;;;5104549;28;20505;-76
2021/11/26 06:08:57;;;;;;;21.20;13.45;;;205.10;2252.80;;;;;;5070933;28;20032;-75
2021/11/26 06:11:38;;;;;;;18.92;10.95;;;205.10;2252.80;;;;;;5107700;28;20036;-75
2021/11/26 06:14:07;;;;;;;14.68;10.05;;;205.10;2252.80;;;;;;5091721;28;20078;-75
2021/11/26 06:16:39;;;;;;;22.98;13.05;;;205.20;2252.80;;;;;;5092817;28;20446;-75
2021/11/26 06:19:08;;;;;;;15.65;10.55;;;205.20;2252.80;;;;;;5101520;28;20783;-76
2021/11/26 06:21:40;;;;;;;20.50;11.05;;;205.30;2252.80;;;;;;5110993;28;20032;-75
2021/11/26 06:24:17;;;;;;;17.80;9.95;;;205.30;2252.80;;;;;;5110977;28;20035;-75
2021/11/26 06:26:55;;;;;;;15.65;11.00;;;205.40;2252.80;;;;;;5121177;27;20077;-75
2021/11/26 06:29:21;;;;;;;15.68;10.13;;;205.50;2252.80;;;;;;5093790;28;20020;-75
2021/11/26 06:31:49;;;;;;;15.90;10.98;;;205.50;2252.80;;;;;;5075977;28;20024;-75
2021/11/26 06:34:15;;;;;;;16.95;11.23;;;205.60;2252.80;;;;;;5077416;28;20027;-76
2021/11/26 06:36:46;;;;;;;20.35;10.80;;;205.60;2252.80;;;;;;5100965;28;20028;-76
2021/11/26 06:39:15;;;;;;;17.58;11.57;;;205.60;2252.80;;;;;;5093490;28;20028;-75
2021/11/26 06:41:50;;;;;;;20.15;12.15;;;205.70;2252.80;;;;;;5092150;28;20027;-76
2021/11/26 06:44:31;;;;;;;22.38;14.68;;;230.40;2252.80;;;;;;5094186;28;20483;-75
2021/11/26 06:47:05;;;;;;;20.95;11.95;;;230.40;2252.80;;;;;;5106011;28;20070;-76
2021/11/26 06:49:43;;;;;;;21.15;14.43;;;230.50;2252.80;;;;;;5076725;28;20056;-76
2021/11/26 06:52:30;;;;;;;17.08;12.30;;;230.50;2252.80;;;;;;5061211;28;20408;-75
2021/11/26 06:54:57;;;;;;;20.77;12.65;;;230.50;2252.80;;;;;;5069595;28;20426;-76
2021/11/26 06:58:08;;;;;;;21.60;13.98;;;230.60;2252.80;;;;;;5070573;28;20048;-76
2021/11/26 07:00:37;;;;;;;20.83;13.27;;;230.60;2252.80;;;;;;5057276;28;20033;-76
2021/11/26 07:03:40;;;;;;;20.00;12.02;;;230.60;2252.80;;;;;;5056745;28;20559;-76
2021/11/26 07:06:06;;;;;;;17.70;11.18;;;230.70;2252.80;;;;;;5072945;28;20502;-76
2021/11/26 07:08:57;;;;;;;16.95;10.93;;;230.70;2252.80;;;;;;5056073;28;20055;-75
2021/11/26 07:11:23;;;;;;;14.60;10.13;;;230.70;2252.80;;;;;;5074280;28;20110;-75
2021/11/26 07:13:48;;;;;;;16.80;9.85;;;230.70;2252.80;;;;;;5073312;28;20059;-74
2021/11/26 07:16:14;;;;;;;13.85;9.98;;;230.70;2252.80;;;;;;5059640;28;20111;-75
2021/11/26 07:19:05;;;;;;;14.02;9.35;;;230.70;2252.80;;;;;;5094124;28;20562;-75
2021/11/26 07:21:34;;;;;;;19.40;12.10;;;230.80;2252.80;;;;;;5076221;28;20056;-75
2021/11/26 07:24:09;;;;;;;17.50;11.85;;;230.80;2252.80;;;;;;5072002;28;20029;-75
2021/11/26 07:26:56;;;;;;;16.90;11.05;;;230.80;2252.80;;;;;;5055514;28;20036;-75
2021/11/26 07:29:46;;;;;;;16.30;11.02;;;230.90;2252.80;;;;;;5056097;28;20029;-75
2021/11/26 07:32:37;;;;;;;14.02;9.18;;;230.90;2252.80;;;;;;5055428;28;20041;-75
2021/11/26 07:35:34;;;;;;;11.90;7.70;;;230.90;2252.80;;;;;;5071210;28;20045;-75
2021/11/26 07:38:02;;;;;;;16.73;10.50;;;231.00;2252.80;;;;;;5070300;28;20382;-75
2021/11/26 07:40:59;;;;;;;14.63;9.98;;;231.10;2252.80;;;;;;5055467;28;20070;-77
2021/11/26 07:43:25;;;;;;;21.55;10.20;;;231.10;2252.80;;;;;;5074055;28;20074;-77
2021/11/26 07:45:55;;;;;;;16.00;9.85;;;231.20;2252.80;;;;;;5055127;28;20029;-77
2021/11/26 07:48:31;;;;;;;17.45;8.60;;;231.20;2252.80;;;;;;5074219;28;20139;-76
2021/11/26 07:51:09;;;;;;;13.43;8.55;;;231.20;2252.80;;;;;;5074454;28;20560;-77
2021/11/26 07:53:53;;;;;;;10.32;8.07;;;231.30;2252.80;;;;;;5089588;28;20037;-76
2021/11/26 07:56:49;;;;;;;13.20;9.25;;;231.30;2252.80;;;;;;5072915;28;20020;-77
2021/11/26 07:59:34;;;;;;;14.30;8.87;;;231.30;2252.80;;;;;;5056254;28;20054;-76
2021/11/26 08:02:10;;;;;;;15.32;10.10;;;256.00;2252.80;;;;;;5070063;28;20038;-77
2021/11/26 08:04:38;;;;;;;11.07;8.52;;;256.00;2252.80;;;;;;5073744;28;20020;-78
2021/11/26 08:07:10;;;;;;;19.52;8.43;;;256.00;2252.80;;;;;;5081014;28;20029;-77
2021/11/26 08:09:51;;;;;;;14.68;8.40;;;256.00;2252.80;;;;;;5055514;28;20025;-77
2021/11/26 08:12:20;;;;;;;12.60;8.35;;;256.10;2252.80;;;;;;5055485;28;20041;-78
2021/11/26 08:14:53;;;;;;;13.82;9.75;;;256.10;2252.80;;;;;;5074142;28;20020;-77
2021/11/26 08:20:32;;;;;;;13.68;8.07;;;256.40;2252.80;;;;;;5073455;28;20055;-76
2021/11/26 08:23:00;;;;;;;15.57;9.32;;;256.50;2252.80;;;;;;5073752;28;20044;-77
2021/11/26 08:25:33;;;;;;;13.35;9.52;;;256.60;2252.80;;;;;;5073418;28;20112;-76
2021/11/26 08:28:02;;;;;;;15.15;9.25;;;256.60;2252.80;;;;;;5054213;28;20500;-76
2021/11/26 08:31:04;;;;;;;14.40;9.93;;;256.70;2252.80;;;;;;5073522;28;20033;-76
2021/11/26 08:33:30;;;;;;;17.98;10.05;;;256.80;2252.80;;;;;;5073226;28;20035;-76
2021/11/26 08:36:05;;;;;;;18.95;9.85;;;256.70;2252.80;;;;;;5054325;28;20047;-75
2021/11/26 08:41:25;;;;;;;13.57;8.77;;;256.80;2252.80;;;;;;5073667;28;20107;-77
2021/11/26 08:44:16;;;;;;;17.90;11.18;;;256.70;2252.80;;;;;;5055179;28;20111;-77
2021/11/26 08:46:41;;;;;;;18.67;10.75;;;256.70;2252.80;;;;;;5054384;28;20786;-76
2021/11/26 08:49:11;;;;;;;20.80;12.68;;;256.70;2252.80;;;;;;5054774;28;20025;-76
2021/11/26 08:54:55;;;;;;;16.35;11.88;;;256.60;2252.80;;;;;;5093482;28;20441;-76
2021/11/26 08:57:36;;;;;;;25.02;14.80;;;256.70;2252.80;;;;;;5092796;28;20134;-76
2021/11/26 09:03:16;;;;;;;22.77;14.68;;;256.80;2252.80;;;;;;5092168;28;20031;-76
2021/11/26 09:06:07;;;;;;;15.38;9.05;;;256.80;2252.80;;;;;;5089230;28;20020;-76
2021/11/26 09:08:36;;;;;;;15.15;9.38;;;256.80;2252.80;;;;;;5089851;28;20024;-76
2021/11/26 09:11:30;;;;;;;14.82;9.52;;;256.90;2252.80;;;;;;5082432;28;20032;-76
2021/11/26 09:14:20;;;;;;;11.18;7.97;;;281.60;2278.40;;;;;;5089603;28;20036;-78
2021/11/26 09:17:08;;;;;;;12.48;8.27;;;281.60;2278.40;;;;;;5071585;28;20387;-76
2021/11/26 09:19:37;;;;;;;15.95;10.32;;;281.70;2278.40;;;;;;5073179;28;20028;-76
2021/11/26 09:22:03;;;;;;;16.30;10.98;;;281.70;2278.40;;;;;;5088248;28;20093;-76
2021/11/26 09:24:29;;;;;;;18.63;12.38;;;281.70;2278.40;;;;;;5092185;28;20052;-76
2021/11/26 09:27:00;;;;;;;21.23;13.25;;;281.60;2278.40;;;;;;5074077;28;20442;-76
2021/11/26 09:29:32;;;;;;;16.60;11.07;;;281.60;2278.40;;;;;;5073868;28;20486;-76
2021/11/26 09:32:01;;;;;;;17.52;11.57;;;281.60;2278.40;;;;;;5074057;28;20043;-77
2021/11/26 09:34:30;;;;;;;14.82;11.18;;;281.60;2278.40;;;;;;5073334;28;20031;-75
2021/11/26 09:37:05;;;;;;;16.02;10.63;;;281.70;2278.40;;;;;;5073788;28;20074;-76
2021/11/26 09:42:52;;;;;;;18.55;11.75;;;256.90;2252.80;;;;;;5112568;28;20042;-75
2021/11/26 09:48:13;;;;;;;19.48;12.82;;;256.70;2252.80;;;;;;5092389;28;20039;-75
2021/11/26 09:51:11;;;;;;;16.85;12.65;;;256.60;2252.80;;;;;;5091805;28;20036;-76
2021/11/26 09:54:02;;;;;;;19.52;13.40;;;256.50;2252.80;;;;;;5070098;28;20066;-74
2021/11/26 09:56:52;;;;;;;18.48;12.55;;;256.30;2252.80;;;;;;5069324;28;20020;-76
2021/11/26 09:59:45;;;;;;;19.15;11.90;;;256.20;2252.80;;;;;;5084060;28;20508;-78
2021/11/26 10:02:33;;;;;;;20.38;13.48;;;256.00;2252.80;;;;;;5051643;28;20025;-76
2021/11/26 10:08:06;;;;;;;20.67;14.00;;;231.10;2252.80;;;;;;5068628;28;20028;-75
2021/11/26 10:17:01;;;;;;;23.05;13.73;;;230.80;2252.80;;;;;;5070274;28;20055;-76
2021/11/26 10:22:47;;;;;;;26.33;15.38;;;230.80;2252.80;;;;;;5070850;28;20734;-75
2021/11/26 10:25:34;;;;;;;19.05;13.32;;;230.80;2252.80;;;;;;5052238;28;20032;-74
2021/11/26 10:28:02;;;;;;;18.15;11.60;;;230.70;2252.80;;;;;;5068082;28;20020;-75
2021/11/26 10:33:48;;;;;;;24.25;13.85;;;230.70;2252.80;;;;;;5070141;28;20805;-74
2021/11/26 10:36:51;;;;;;;22.48;14.68;;;230.60;2252.80;;;;;;5049586;28;20099;-75
2021/11/26 10:39:27;;;;;;;30.05;17.85;;;230.60;2252.80;;;;;;5070214;28;20021;-75
2021/11/26 10:45:20;;;;;;;24.17;14.95;;;230.50;2252.80;;;;;;5070334;28;19960;-77
2021/11/26 11:00:00;;;;;;;21.55;14.55;;;230.60;2252.80;;;;;;5025093;28;20456;-76
2021/11/26 11:02:52;;;;;;;19.38;13.60;;;230.60;2252.80;;;;;;5020759;28;20120;-76
2021/11/26 11:05:32;;;;;;;18.92;12.15;;;230.60;2252.80;;;;;;5021308;28;20034;-76
2021/11/26 11:08:22;;;;;;;20.77;14.18;;;230.50;2252.80;;;;;;5021323;28;20084;-77
2021/11/26 11:10:52;;;;;;;26.13;15.93;;;230.50;2252.80;;;;;;5017116;28;20841;-76
2021/11/26 11:13:32;;;;;;;20.90;14.98;;;230.50;2252.80;;;;;;5022273;28;20517;-76
2021/11/26 11:16:23;;;;;;;23.58;14.48;;;230.40;2252.80;;;;;;5018493;28;20059;-76
2021/11/26 11:19:25;;;;;;;21.90;14.68;;;230.40;2252.80;;;;;;5014481;28;20053;-75
2021/11/26 11:31:34;;;;;;;27.20;15.10;;;205.70;2252.80;;;;;;5094298;28;20097;-77
2021/11/26 11:34:06;;;;;;;24.23;15.82;;;205.70;2252.80;;;;;;5089205;28;20689;-76
2021/11/26 11:36:56;;;;;;;24.38;14.60;;;205.70;2252.80;;;;;;5074980;28;20024;-76
2021/11/26 11:39:46;;;;;;;21.98;14.77;;;205.70;2252.80;;;;;;5088620;28;20115;-76
2021/11/26 11:42:46;;;;;;;20.00;13.50;;;205.70;2252.80;;;;;;5067802;28;20118;-77
2021/11/26 11:45:27;;;;;;;22.00;14.30;;;205.70;2252.80;;;;;;5073111;28;20067;-77
2021/11/26 11:54:51;;;;;;;22.52;14.57;;;205.70;2252.80;;;;;;5086370;28;19971;-77
2021/11/26 11:57:39;;;;;;;18.60;12.90;;;205.70;2252.80;;;;;;5091413;28;20032;-76
2021/11/26 12:03:36;;;;;;;23.80;16.48;;;205.60;2252.80;;;;;;5087598;28;20390;-76
2021/11/26 12:06:31;;;;;;;26.63;16.42;;;205.60;2252.80;;;;;;5074224;28;20030;-76
2021/11/26 12:09:38;;;;;;;23.80;14.57;;;205.70;2252.80;;;;;;5088180;28;20016;-76
2021/11/26 12:12:09;;;;;;;18.80;13.05;;;205.70;2252.80;;;;;;5073802;28;20028;-76
2021/11/26 12:15:01;;;;;;;21.40;14.52;;;230.40;2252.80;;;;;;5075098;28;20019;-76
2021/11/26 12:17:54;;;;;;;21.20;14.50;;;230.40;2252.80;;;;;;5089495;28;20084;-76
2021/11/26 12:20:41;;;;;;;27.05;15.57;;;230.40;2252.80;;;;;;5092514;28;20112;-76
2021/11/26 12:23:25;;;;;;;22.45;14.25;;;230.50;2252.80;;;;;;5085906;28;20372;-76
2021/11/26 12:29:46;;;;;;;19.60;13.30;;;230.40;2252.80;;;;;;5090672;28;20752;-75
2021/11/26 12:32:49;;;;;;;21.67;12.90;;;230.40;2252.80;;;;;;5090386;28;20664;-74
2021/11/26 12:35:45;;;;;;;19.83;12.05;;;230.40;2252.80;;;;;;5092566;28;20020;-74
2021/11/26 12:38:38;;;;;;;18.48;12.18;;;205.70;2252.80;;;;;;5091096;28;20085;-75
2021/11/26 12:41:46;;;;;;;18.35;12.25;;;205.70;2252.80;;;;;;5074412;28;20075;-76
2021/11/26 12:44:34;;;;;;;26.48;12.70;;;205.60;2252.80;;;;;;5090537;28;20062;-75
2021/11/26 12:47:04;;;;;;;19.60;11.35;;;205.60;2252.80;;;;;;5092441;28;20023;-75
2021/11/26 12:52:36;;;;;;;17.50;12.77;;;205.50;2252.80;;;;;;5088961;28;20041;-74
2021/11/26 12:55:23;;;;;;;21.00;13.73;;;205.50;2252.80;;;;;;5073319;28;20039;-74
2021/11/26 12:57:57;;;;;;;22.30;12.85;;;205.40;2252.80;;;;;;5089272;28;20020;-74
2021/11/26 13:00:26;;;;;;;18.90;13.13;;;205.30;2252.80;;;;;;5069688;28;20055;-74
2021/11/26 13:03:17;;;;;;;19.00;13.88;;;205.40;2252.80;;;;;;5089521;28;20032;-74
2021/11/26 13:06:08;;;;;;;17.75;11.65;;;205.30;2252.80;;;;;;5092801;28;20023;-75
2021/11/26 13:08:39;;;;;;;18.15;12.18;;;205.30;2252.80;;;;;;5088944;28;20032;-74
2021/11/26 13:11:08;;;;;;;19.08;11.88;;;205.30;2252.80;;;;;;5071624;28;20047;-75
2021/11/26 13:13:37;;;;;;;27.80;16.80;;;205.20;2252.80;;;;;;5071254;28;20036;-75
2021/11/26 13:16:25;;;;;;;19.02;11.65;;;205.30;2252.80;;;;;;5073571;28;20114;-75
2021/11/26 13:18:58;;;;;;;16.55;11.48;;;205.30;2252.80;;;;;;5073106;28;20458;-74
2021/11/26 13:21:27;;;;;;;15.95;10.63;;;205.30;2252.80;;;;;;5090568;28;20032;-75
2021/11/26 13:23:59;;;;;;;19.25;12.77;;;205.30;2252.80;;;;;;5073864;28;20384;-75
2021/11/26 13:26:55;;;;;;;16.33;12.38;;;205.30;2252.80;;;;;;5091983;28;20024;-75
2021/11/26 13:29:32;;;;;;;18.65;12.32;;;205.30;2252.80;;;;;;5089990;28;20489;-74
2021/11/26 13:32:21;;;;;;;21.10;11.88;;;205.30;2252.80;;;;;;5089636;28;20502;-75
2021/11/26 13:35:09;;;;;;;23.02;11.65;;;205.30;2252.80;;;;;;5090014;28;20032;-74
2021/11/26 13:38:22;;;;;;;13.77;9.38;;;205.30;2252.80;;;;;;5092879;28;20024;-74
2021/11/26 13:41:36;;;;;;;14.43;9.38;;;205.30;2252.80;;;;;;5090152;28;20024;-74
2021/11/26 13:47:33;;;;;;;18.50;11.05;;;205.40;2252.80;;;;;;5047553;28;20096;-75
2021/11/26 13:50:17;;;;;;;15.87;9.53;;;205.40;2252.80;;;;;;5031610;28;20037;-75
2021/11/26 13:53:00;;;;;;;15.88;10.52;;;205.40;2252.80;;;;;;5044384;28;20184;-74
2021/11/26 13:55:47;;;;;;;15.60;10.95;;;205.40;2252.80;;;;;;5027889;28;20033;-74
2021/11/26 13:58:35;;;;;;;16.08;9.57;;;205.40;2252.80;;;;;;5029924;28;20048;-74
2021/11/26 14:01:28;;;;;;;15.40;9.55;;;205.50;2252.80;;;;;;5052049;28;20073;-75
2021/11/26 14:04:05;;;;;;;16.25;10.30;;;205.50;2252.80;;;;;;5031219;28;20030;-74
2021/11/26 14:06:52;;;;;;;17.50;12.30;;;205.50;2252.80;;;;;;5031736;28;20033;-74
2021/11/26 14:09:43;;;;;;;16.00;10.65;;;205.50;2252.80;;;;;;5031624;28;20133;-75
2021/11/26 14:15:45;;;;;;;15.82;10.45;;;205.60;2252.80;;;;;;5031405;28;20060;-76
2021/11/26 14:18:17;;;;;;;20.27;12.05;;;205.60;2252.80;;;;;;5055002;28;20491;-75